Weather at Livingston County Spencer J. Hardy Airport

Public forecast

Using degrees Fahrenheit for public forecast. Weather courtesy of forecast.io.

Current aviation weather report (METAR) for Livingston County Spencer J. Hardy Airport

Retrieved 2020/09/24 17:35 UTC (3 minutes ago):

KOZW 241735Z AUTO 23004KT 10SM CLR 24/12 A2997 RMK AO2 T02360122

Closest aviation forecast (TAF) to Livingston County Spencer J. Hardy Airport

Closest forecast is Bishop International Airport, 22.8 nm (42.1 km) NNE. Retrieved 2020/09/24 12:22 UTC (5 hours ago):

TAF KFNT 241120Z 2412/2512 22005KT P6SM SCT250 FM241500 23010KT P6SM FEW200 FM250000 22005KT P6SM SCT200